sensor_id;sensor_type;location;lat;lon;timestamp;temperature;humidity
14519;DHT22;7346;50.846;4.388;2022-07-21T00:01:20;19.40;99.90
14519;DHT22;7346;50.846;4.388;2022-07-21T00:03:47;19.50;99.90
14519;DHT22;7346;50.846;4.388;2022-07-21T00:06:14;19.40;99.90
14519;DHT22;7346;50.846;4.388;2022-07-21T00:08:42;19.40;99.90
14519;DHT22;7346;50.846;4.388;2022-07-21T00:11:09;19.50;99.90
14519;DHT22;7346;50.846;4.388;2022-07-21T00:13:36;19.40;99.90
14519;DHT22;7346;50.846;4.388;2022-07-21T00:16:03;19.40;99.90
14519;DHT22;7346;50.846;4.388;2022-07-21T00:18:30;19.40;99.90
14519;DHT22;7346;50.846;4.388;2022-07-21T00:20:58;19.40;99.90
14519;DHT22;7346;50.846;4.388;2022-07-21T00:23:26;19.50;99.90
14519;DHT22;7346;50.846;4.388;2022-07-21T00:25:54;19.40;99.90
14519;DHT22;7346;50.846;4.388;2022-07-21T00:28:21;19.40;99.90
14519;DHT22;7346;50.846;4.388;2022-07-21T00:30:48;19.30;99.90
14519;DHT22;7346;50.846;4.388;2022-07-21T00:33:15;19.30;99.90
14519;DHT22;7346;50.846;4.388;2022-07-21T00:35:44;19.40;99.90
14519;DHT22;7346;50.846;4.388;2022-07-21T00:38:13;19.40;99.90
14519;DHT22;7346;50.846;4.388;2022-07-21T00:40:41;19.40;99.90
14519;DHT22;7346;50.846;4.388;2022-07-21T00:43:09;19.40;99.90
14519;DHT22;7346;50.846;4.388;2022-07-21T00:45:36;19.40;99.90
14519;DHT22;7346;50.846;4.388;2022-07-21T00:48:04;19.40;99.90
14519;DHT22;7346;50.846;4.388;2022-07-21T00:50:32;19.40;99.90
14519;DHT22;7346;50.846;4.388;2022-07-21T00:52:59;19.40;99.90
14519;DHT22;7346;50.846;4.388;2022-07-21T00:55:26;19.40;99.90
14519;DHT22;7346;50.846;4.388;2022-07-21T00:57:53;19.40;99.90
14519;DHT22;7346;50.846;4.388;2022-07-21T01:00:25;19.40;99.90
14519;DHT22;7346;50.846;4.388;2022-07-21T01:02:53;19.40;99.90
14519;DHT22;7346;50.846;4.388;2022-07-21T01:05:20;19.30;99.90
14519;DHT22;7346;50.846;4.388;2022-07-21T01:07:49;19.30;99.90
14519;DHT22;7346;50.846;4.388;2022-07-21T01:10:19;19.30;99.90
14519;DHT22;7346;50.846;4.388;2022-07-21T01:12:46;19.30;99.90
14519;DHT22;7346;50.846;4.388;2022-07-21T01:15:15;19.30;99.90
14519;DHT22;7346;50.846;4.388;2022-07-21T01:17:44;19.30;99.90
14519;DHT22;7346;50.846;4.388;2022-07-21T01:20:13;19.30;99.90
14519;DHT22;7346;50.846;4.388;2022-07-21T01:22:43;19.30;99.90
14519;DHT22;7346;50.846;4.388;2022-07-21T01:25:10;19.30;99.90
14519;DHT22;7346;50.846;4.388;2022-07-21T01:27:51;19.30;99.90
14519;DHT22;7346;50.846;4.388;2022-07-21T01:30:18;19.30;99.90
14519;DHT22;7346;50.846;4.388;2022-07-21T01:32:45;19.20;99.90
14519;DHT22;7346;50.846;4.388;2022-07-21T01:35:14;19.20;99.90
14519;DHT22;7346;50.846;4.388;2022-07-21T01:37:45;19.10;99.90
14519;DHT22;7346;50.846;4.388;2022-07-21T01:40:13;19.20;99.90
14519;DHT22;7346;50.846;4.388;2022-07-21T01:42:58;19.20;99.90
14519;DHT22;7346;50.846;4.388;2022-07-21T01:45:25;19.20;99.90
14519;DHT22;7346;50.846;4.388;2022-07-21T01:47:52;19.20;99.90
14519;DHT22;7346;50.846;4.388;2022-07-21T01:50:19;19.20;99.90
14519;DHT22;7346;50.846;4.388;2022-07-21T01:52:53;19.20;99.90
14519;DHT22;7346;50.846;4.388;2022-07-21T01:55:21;19.20;99.90
14519;DHT22;7346;50.846;4.388;2022-07-21T01:57:48;19.30;99.90
14519;DHT22;7346;50.846;4.388;2022-07-21T02:00:16;19.30;99.90
14519;DHT22;7346;50.846;4.388;2022-07-21T02:02:43;19.40;99.90
14519;DHT22;7346;50.846;4.388;2022-07-21T02:05:10;19.40;99.90
14519;DHT22;7346;50.846;4.388;2022-07-21T02:07:37;19.40;99.90
14519;DHT22;7346;50.846;4.388;2022-07-21T02:10:06;19.40;99.90
14519;DHT22;7346;50.846;4.388;2022-07-21T02:12:33;19.50;99.90
14519;DHT22;7346;50.846;4.388;2022-07-21T02:15:00;19.50;99.90
14519;DHT22;7346;50.846;4.388;2022-07-21T02:17:27;19.50;99.90
14519;DHT22;7346;50.846;4.388;2022-07-21T02:19:54;19.50;99.90
14519;DHT22;7346;50.846;4.388;2022-07-21T02:22:21;19.50;99.90
14519;DHT22;7346;50.846;4.388;2022-07-21T02:24:47;19.50;99.90
14519;DHT22;7346;50.846;4.388;2022-07-21T02:27:16;19.50;99.90
14519;DHT22;7346;50.846;4.388;2022-07-21T02:29:43;19.50;99.90
14519;DHT22;7346;50.846;4.388;2022-07-21T02:32:10;19.50;99.90
14519;DHT22;7346;50.846;4.388;2022-07-21T02:34:39;19.50;99.90
14519;DHT22;7346;50.846;4.388;2022-07-21T02:37:06;19.40;99.90
14519;DHT22;7346;50.846;4.388;2022-07-21T02:39:33;19.50;99.90
14519;DHT22;7346;50.846;4.388;2022-07-21T02:42:00;19.50;99.90
14519;DHT22;7346;50.846;4.388;2022-07-21T02:44:29;19.50;99.90
14519;DHT22;7346;50.846;4.388;2022-07-21T02:46:56;19.50;99.90
14519;DHT22;7346;50.846;4.388;2022-07-21T02:49:23;19.50;99.90
14519;DHT22;7346;50.846;4.388;2022-07-21T02:51:50;19.40;99.90
14519;DHT22;7346;50.846;4.388;2022-07-21T02:54:17;19.40;99.90
14519;DHT22;7346;50.846;4.388;2022-07-21T02:56:44;19.50;99.90
14519;DHT22;7346;50.846;4.388;2022-07-21T02:59:11;19.60;99.90
14519;DHT22;7346;50.846;4.388;2022-07-21T03:01:39;19.60;99.90
14519;DHT22;7346;50.846;4.388;2022-07-21T03:04:06;19.60;99.90
14519;DHT22;7346;50.846;4.388;2022-07-21T03:06:33;19.50;99.90
14519;DHT22;7346;50.846;4.388;2022-07-21T03:09:00;19.40;99.90
14519;DHT22;7346;50.846;4.388;2022-07-21T03:11:27;19.40;99.90
14519;DHT22;7346;50.846;4.388;2022-07-21T03:13:54;19.30;99.90
14519;DHT22;7346;50.846;4.388;2022-07-21T03:16:21;19.30;99.90
14519;DHT22;7346;50.846;4.388;2022-07-21T03:18:49;19.30;99.90
14519;DHT22;7346;50.846;4.388;2022-07-21T03:21:16;19.30;99.90
14519;DHT22;7346;50.846;4.388;2022-07-21T03:23:43;19.20;99.90
14519;DHT22;7346;50.846;4.388;2022-07-21T03:26:11;19.10;99.90
14519;DHT22;7346;50.846;4.388;2022-07-21T03:28:39;19.10;99.90
14519;DHT22;7346;50.846;4.388;2022-07-21T03:31:06;19.10;99.90
14519;DHT22;7346;50.846;4.388;2022-07-21T03:33:33;19.10;99.90
14519;DHT22;7346;50.846;4.388;2022-07-21T03:36:03;19.10;99.90
14519;DHT22;7346;50.846;4.388;2022-07-21T03:38:30;19.20;99.90
14519;DHT22;7346;50.846;4.388;2022-07-21T03:40:56;19.20;99.90
14519;DHT22;7346;50.846;4.388;2022-07-21T03:43:23;19.20;99.90
14519;DHT22;7346;50.846;4.388;2022-07-21T03:45:50;19.20;99.90
14519;DHT22;7346;50.846;4.388;2022-07-21T03:48:17;19.20;99.90
14519;DHT22;7346;50.846;4.388;2022-07-21T03:50:44;19.10;99.90
14519;DHT22;7346;50.846;4.388;2022-07-21T03:53:12;19.10;99.90
14519;DHT22;7346;50.846;4.388;2022-07-21T03:55:40;19.10;99.90
14519;DHT22;7346;50.846;4.388;2022-07-21T03:58:06;19.10;99.90
14519;DHT22;7346;50.846;4.388;2022-07-21T04:00:36;19.10;99.90
14519;DHT22;7346;50.846;4.388;2022-07-21T04:03:04;19.10;99.90
14519;DHT22;7346;50.846;4.388;2022-07-21T04:05:32;19.10;99.90
14519;DHT22;7346;50.846;4.388;2022-07-21T04:08:00;19.20;99.90
14519;DHT22;7346;50.846;4.388;2022-07-21T04:10:31;19.20;99.90
14519;DHT22;7346;50.846;4.388;2022-07-21T04:13:01;19.30;99.90
14519;DHT22;7346;50.846;4.388;2022-07-21T04:15:29;19.30;99.90
14519;DHT22;7346;50.846;4.388;2022-07-21T04:17:57;19.30;99.90
14519;DHT22;7346;50.846;4.388;2022-07-21T04:20:24;19.30;99.90
14519;DHT22;7346;50.846;4.388;2022-07-21T04:22:52;19.30;99.90
14519;DHT22;7346;50.846;4.388;2022-07-21T04:25:19;19.30;99.90
14519;DHT22;7346;50.846;4.388;2022-07-21T04:27:49;19.30;99.90
14519;DHT22;7346;50.846;4.388;2022-07-21T04:30:20;19.30;99.90
14519;DHT22;7346;50.846;4.388;2022-07-21T04:32:48;19.30;99.90
14519;DHT22;7346;50.846;4.388;2022-07-21T04:35:15;19.20;99.90
14519;DHT22;7346;50.846;4.388;2022-07-21T04:37:43;19.30;99.90
14519;DHT22;7346;50.846;4.388;2022-07-21T04:40:12;19.20;99.90
14519;DHT22;7346;50.846;4.388;2022-07-21T04:42:39;19.20;99.90
14519;DHT22;7346;50.846;4.388;2022-07-21T04:45:09;19.20;99.90
14519;DHT22;7346;50.846;4.388;2022-07-21T04:47:46;19.20;99.90
14519;DHT22;7346;50.846;4.388;2022-07-21T04:50:14;19.20;99.90
14519;DHT22;7346;50.846;4.388;2022-07-21T04:52:44;19.30;99.90
14519;DHT22;7346;50.846;4.388;2022-07-21T04:55:12;19.30;99.90
14519;DHT22;7346;50.846;4.388;2022-07-21T04:57:41;19.30;99.90
14519;DHT22;7346;50.846;4.388;2022-07-21T05:00:11;19.40;99.90
14519;DHT22;7346;50.846;4.388;2022-07-21T05:02:39;19.40;99.90
14519;DHT22;7346;50.846;4.388;2022-07-21T05:05:07;19.40;99.90
14519;DHT22;7346;50.846;4.388;2022-07-21T05:07:34;19.40;99.90
14519;DHT22;7346;50.846;4.388;2022-07-21T05:10:04;19.40;99.90
14519;DHT22;7346;50.846;4.388;2022-07-21T05:12:31;19.40;99.90
14519;DHT22;7346;50.846;4.388;2022-07-21T05:14:58;19.40;99.90
14519;DHT22;7346;50.846;4.388;2022-07-21T05:17:26;19.40;99.90
14519;DHT22;7346;50.846;4.388;2022-07-21T05:19:53;19.40;99.90
14519;DHT22;7346;50.846;4.388;2022-07-21T05:22:20;19.40;99.90
14519;DHT22;7346;50.846;4.388;2022-07-21T05:24:47;19.40;99.90
14519;DHT22;7346;50.846;4.388;2022-07-21T05:27:14;19.40;99.90
14519;DHT22;7346;50.846;4.388;2022-07-21T05:29:40;19.30;99.90
14519;DHT22;7346;50.846;4.388;2022-07-21T05:32:07;19.30;99.90
14519;DHT22;7346;50.846;4.388;2022-07-21T05:34:36;19.30;99.90
14519;DHT22;7346;50.846;4.388;2022-07-21T05:37:02;19.30;99.90
14519;DHT22;7346;50.846;4.388;2022-07-21T05:39:29;19.30;99.90
14519;DHT22;7346;50.846;4.388;2022-07-21T05:41:57;19.30;99.90
14519;DHT22;7346;50.846;4.388;2022-07-21T05:44:24;19.30;99.90
14519;DHT22;7346;50.846;4.388;2022-07-21T05:46:51;19.30;99.90
14519;DHT22;7346;50.846;4.388;2022-07-21T05:49:17;19.30;99.90
14519;DHT22;7346;50.846;4.388;2022-07-21T05:51:46;19.30;99.90
14519;DHT22;7346;50.846;4.388;2022-07-21T05:54:13;19.30;99.90
14519;DHT22;7346;50.846;4.388;2022-07-21T05:56:40;19.30;99.90
14519;DHT22;7346;50.846;4.388;2022-07-21T05:59:07;19.20;99.90
14519;DHT22;7346;50.846;4.388;2022-07-21T06:01:34;19.20;99.90
14519;DHT22;7346;50.846;4.388;2022-07-21T06:04:01;19.20;99.90
14519;DHT22;7346;50.846;4.388;2022-07-21T06:06:28;19.20;99.90
14519;DHT22;7346;50.846;4.388;2022-07-21T06:08:56;19.20;99.90
14519;DHT22;7346;50.846;4.388;2022-07-21T06:11:23;19.20;99.90
14519;DHT22;7346;50.846;4.388;2022-07-21T06:13:50;19.10;99.90
14519;DHT22;7346;50.846;4.388;2022-07-21T06:16:17;19.10;99.90
14519;DHT22;7346;50.846;4.388;2022-07-21T06:18:44;19.10;99.90
14519;DHT22;7346;50.846;4.388;2022-07-21T06:21:11;19.10;99.90
14519;DHT22;7346;50.846;4.388;2022-07-21T06:23:38;19.10;99.90
14519;DHT22;7346;50.846;4.388;2022-07-21T06:26:06;19.10;99.90
14519;DHT22;7346;50.846;4.388;2022-07-21T06:28:33;19.10;99.90
14519;DHT22;7346;50.846;4.388;2022-07-21T06:31:00;19.10;99.90
14519;DHT22;7346;50.846;4.388;2022-07-21T06:33:27;19.10;99.90
14519;DHT22;7346;50.846;4.388;2022-07-21T06:35:54;19.10;99.90
14519;DHT22;7346;50.846;4.388;2022-07-21T06:38:21;19.20;99.90
14519;DHT22;7346;50.846;4.388;2022-07-21T06:40:49;19.10;99.90
14519;DHT22;7346;50.846;4.388;2022-07-21T06:43:18;19.10;99.90
14519;DHT22;7346;50.846;4.388;2022-07-21T06:45:45;19.10;99.90
14519;DHT22;7346;50.846;4.388;2022-07-21T06:48:12;19.10;99.90
14519;DHT22;7346;50.846;4.388;2022-07-21T06:50:39;19.10;99.90
14519;DHT22;7346;50.846;4.388;2022-07-21T06:53:06;19.10;99.90
14519;DHT22;7346;50.846;4.388;2022-07-21T06:55:33;19.00;99.90
14519;DHT22;7346;50.846;4.388;2022-07-21T06:58:11;19.00;99.90
14519;DHT22;7346;50.846;4.388;2022-07-21T07:00:39;19.00;99.90
14519;DHT22;7346;50.846;4.388;2022-07-21T07:03:06;19.00;99.90
14519;DHT22;7346;50.846;4.388;2022-07-21T07:05:34;19.00;99.90
14519;DHT22;7346;50.846;4.388;2022-07-21T07:08:01;19.00;99.90
14519;DHT22;7346;50.846;4.388;2022-07-21T07:10:28;19.00;99.90
14519;DHT22;7346;50.846;4.388;2022-07-21T07:12:55;19.00;99.90
14519;DHT22;7346;50.846;4.388;2022-07-21T07:15:23;19.00;99.90
14519;DHT22;7346;50.846;4.388;2022-07-21T07:17:52;19.00;99.90
14519;DHT22;7346;50.846;4.388;2022-07-21T07:20:19;19.10;99.90
14519;DHT22;7346;50.846;4.388;2022-07-21T07:22:46;19.10;99.90
14519;DHT22;7346;50.846;4.388;2022-07-21T07:25:13;19.10;99.90
14519;DHT22;7346;50.846;4.388;2022-07-21T07:27:42;19.10;99.90
14519;DHT22;7346;50.846;4.388;2022-07-21T07:30:10;19.10;99.90
14519;DHT22;7346;50.846;4.388;2022-07-21T07:32:37;19.10;99.90
14519;DHT22;7346;50.846;4.388;2022-07-21T07:35:08;19.10;99.90
14519;DHT22;7346;50.846;4.388;2022-07-21T07:37:39;19.20;99.90
14519;DHT22;7346;50.846;4.388;2022-07-21T07:40:09;19.20;99.90
14519;DHT22;7346;50.846;4.388;2022-07-21T07:42:37;19.30;99.90
14519;DHT22;7346;50.846;4.388;2022-07-21T07:45:05;19.30;99.90
14519;DHT22;7346;50.846;4.388;2022-07-21T07:47:33;19.30;99.90
14519;DHT22;7346;50.846;4.388;2022-07-21T07:50:00;19.30;99.90
14519;DHT22;7346;50.846;4.388;2022-07-21T07:52:28;19.30;99.90
14519;DHT22;7346;50.846;4.388;2022-07-21T07:54:55;19.20;99.90
14519;DHT22;7346;50.846;4.388;2022-07-21T07:57:24;19.20;99.90
14519;DHT22;7346;50.846;4.388;2022-07-21T07:59:51;19.30;99.90
14519;DHT22;7346;50.846;4.388;2022-07-21T08:02:18;19.20;99.90
14519;DHT22;7346;50.846;4.388;2022-07-21T08:04:45;19.30;99.90
14519;DHT22;7346;50.846;4.388;2022-07-21T08:07:14;19.30;99.90
14519;DHT22;7346;50.846;4.388;2022-07-21T08:09:42;19.30;99.90
14519;DHT22;7346;50.846;4.388;2022-07-21T08:12:09;19.30;99.90
14519;DHT22;7346;50.846;4.388;2022-07-21T08:14:36;19.20;99.90
14519;DHT22;7346;50.846;4.388;2022-07-21T08:17:09;19.20;99.90
14519;DHT22;7346;50.846;4.388;2022-07-21T08:19:36;19.30;99.90
14519;DHT22;7346;50.846;4.388;2022-07-21T08:22:03;19.30;99.90
14519;DHT22;7346;50.846;4.388;2022-07-21T08:24:30;19.30;99.90
14519;DHT22;7346;50.846;4.388;2022-07-21T08:26:59;19.20;99.90
14519;DHT22;7346;50.846;4.388;2022-07-21T08:29:26;19.20;99.90
14519;DHT22;7346;50.846;4.388;2022-07-21T08:31:53;19.30;99.90
14519;DHT22;7346;50.846;4.388;2022-07-21T08:34:19;19.40;99.90
14519;DHT22;7346;50.846;4.388;2022-07-21T08:36:47;19.40;99.90
14519;DHT22;7346;50.846;4.388;2022-07-21T08:39:14;19.40;99.90
14519;DHT22;7346;50.846;4.388;2022-07-21T08:41:41;19.40;99.90
14519;DHT22;7346;50.846;4.388;2022-07-21T08:44:09;19.40;99.90
14519;DHT22;7346;50.846;4.388;2022-07-21T08:46:38;19.50;99.90
14519;DHT22;7346;50.846;4.388;2022-07-21T08:49:08;19.50;99.90
14519;DHT22;7346;50.846;4.388;2022-07-21T08:51:36;19.50;99.90
14519;DHT22;7346;50.846;4.388;2022-07-21T08:54:04;19.50;99.90
14519;DHT22;7346;50.846;4.388;2022-07-21T08:56:31;19.50;99.90
14519;DHT22;7346;50.846;4.388;2022-07-21T08:58:58;19.60;99.90
14519;DHT22;7346;50.846;4.388;2022-07-21T09:01:26;19.60;99.90
14519;DHT22;7346;50.846;4.388;2022-07-21T09:03:53;19.50;99.90
14519;DHT22;7346;50.846;4.388;2022-07-21T09:06:22;19.40;99.90
14519;DHT22;7346;50.846;4.388;2022-07-21T09:08:51;19.30;99.90
14519;DHT22;7346;50.846;4.388;2022-07-21T09:11:22;19.30;99.90
14519;DHT22;7346;50.846;4.388;2022-07-21T09:14:04;19.30;99.90
14519;DHT22;7346;50.846;4.388;2022-07-21T09:16:37;19.30;99.90
14519;DHT22;7346;50.846;4.388;2022-07-21T09:19:05;19.30;99.90
14519;DHT22;7346;50.846;4.388;2022-07-21T09:21:33;19.30;99.90
14519;DHT22;7346;50.846;4.388;2022-07-21T09:24:14;19.30;99.90
14519;DHT22;7346;50.846;4.388;2022-07-21T09:29:38;19.30;99.90
14519;DHT22;7346;50.846;4.388;2022-07-21T09:32:15;19.40;99.90
14519;DHT22;7346;50.846;4.388;2022-07-21T09:34:46;19.40;99.90
14519;DHT22;7346;50.846;4.388;2022-07-21T09:37:14;19.40;99.90
14519;DHT22;7346;50.846;4.388;2022-07-21T09:39:42;19.40;99.90
14519;DHT22;7346;50.846;4.388;2022-07-21T09:42:18;19.40;99.90
14519;DHT22;7346;50.846;4.388;2022-07-21T09:44:48;19.40;99.90
14519;DHT22;7346;50.846;4.388;2022-07-21T09:47:18;19.40;99.90
14519;DHT22;7346;50.846;4.388;2022-07-21T09:49:46;19.30;99.90
14519;DHT22;7346;50.846;4.388;2022-07-21T09:52:23;19.20;99.90
14519;DHT22;7346;50.846;4.388;2022-07-21T09:54:51;19.20;99.90
14519;DHT22;7346;50.846;4.388;2022-07-21T09:57:19;19.20;99.90
14519;DHT22;7346;50.846;4.388;2022-07-21T09:59:47;19.20;99.90
14519;DHT22;7346;50.846;4.388;2022-07-21T10:02:18;19.40;99.90
14519;DHT22;7346;50.846;4.388;2022-07-21T10:04:48;19.30;99.90
14519;DHT22;7346;50.846;4.388;2022-07-21T10:07:19;19.40;99.90
14519;DHT22;7346;50.846;4.388;2022-07-21T10:09:48;19.60;99.90
14519;DHT22;7346;50.846;4.388;2022-07-21T10:12:16;19.70;99.90
14519;DHT22;7346;50.846;4.388;2022-07-21T10:14:43;19.80;99.90
14519;DHT22;7346;50.846;4.388;2022-07-21T10:17:12;19.80;99.90
14519;DHT22;7346;50.846;4.388;2022-07-21T10:19:49;19.80;99.90
14519;DHT22;7346;50.846;4.388;2022-07-21T10:22:30;19.90;99.90
14519;DHT22;7346;50.846;4.388;2022-07-21T10:25:01;20.00;99.90
14519;DHT22;7346;50.846;4.388;2022-07-21T10:27:28;19.90;99.90
14519;DHT22;7346;50.846;4.388;2022-07-21T10:29:57;19.90;99.90
14519;DHT22;7346;50.846;4.388;2022-07-21T10:32:29;19.80;99.90
14519;DHT22;7346;50.846;4.388;2022-07-21T10:35:00;19.90;99.90
14519;DHT22;7346;50.846;4.388;2022-07-21T10:37:47;20.00;99.90
14519;DHT22;7346;50.846;4.388;2022-07-21T10:40:34;20.00;99.90
14519;DHT22;7346;50.846;4.388;2022-07-21T10:43:36;20.00;99.90
14519;DHT22;7346;50.846;4.388;2022-07-21T10:46:34;19.90;99.90
14519;DHT22;7346;50.846;4.388;2022-07-21T10:49:05;19.80;99.90
14519;DHT22;7346;50.846;4.388;2022-07-21T10:51:35;19.70;99.90
14519;DHT22;7346;50.846;4.388;2022-07-21T10:54:35;19.70;99.90
14519;DHT22;7346;50.846;4.388;2022-07-21T10:57:29;19.70;99.90
14519;DHT22;7346;50.846;4.388;2022-07-21T11:00:23;19.60;99.90
14519;DHT22;7346;50.846;4.388;2022-07-21T11:02:57;19.70;99.90
14519;DHT22;7346;50.846;4.388;2022-07-21T11:05:26;19.80;99.90
14519;DHT22;7346;50.846;4.388;2022-07-21T11:08:15;20.10;99.90
14519;DHT22;7346;50.846;4.388;2022-07-21T11:10:44;20.20;99.90
14519;DHT22;7346;50.846;4.388;2022-07-21T11:13:12;20.40;99.90
14519;DHT22;7346;50.846;4.388;2022-07-21T11:15:47;20.50;99.90
14519;DHT22;7346;50.846;4.388;2022-07-21T11:18:18;20.70;99.90
14519;DHT22;7346;50.846;4.388;2022-07-21T11:21:11;20.80;99.90
14519;DHT22;7346;50.846;4.388;2022-07-21T11:23:45;20.70;99.90
14519;DHT22;7346;50.846;4.388;2022-07-21T11:26:15;20.80;99.90
14519;DHT22;7346;50.846;4.388;2022-07-21T11:28:44;20.80;99.90
14519;DHT22;7346;50.846;4.388;2022-07-21T11:31:16;20.70;99.90
14519;DHT22;7346;50.846;4.388;2022-07-21T11:33:44;20.60;99.90
14519;DHT22;7346;50.846;4.388;2022-07-21T11:36:24;20.50;99.90
14519;DHT22;7346;50.846;4.388;2022-07-21T11:39:04;20.50;99.90
14519;DHT22;7346;50.846;4.388;2022-07-21T11:41:32;20.60;99.90
14519;DHT22;7346;50.846;4.388;2022-07-21T11:44:00;20.60;99.90
14519;DHT22;7346;50.846;4.388;2022-07-21T11:46:27;20.60;99.90
14519;DHT22;7346;50.846;4.388;2022-07-21T11:49:02;20.60;99.90
14519;DHT22;7346;50.846;4.388;2022-07-21T11:51:30;20.40;99.90
14519;DHT22;7346;50.846;4.388;2022-07-21T11:53:58;20.50;99.90
14519;DHT22;7346;50.846;4.388;2022-07-21T11:56:27;20.50;99.90
14519;DHT22;7346;50.846;4.388;2022-07-21T11:59:08;20.50;99.90
14519;DHT22;7346;50.846;4.388;2022-07-21T12:01:48;20.50;99.90
14519;DHT22;7346;50.846;4.388;2022-07-21T12:04:36;20.40;99.90
14519;DHT22;7346;50.846;4.388;2022-07-21T12:07:04;20.40;99.90
14519;DHT22;7346;50.846;4.388;2022-07-21T12:09:32;20.40;99.90
14519;DHT22;7346;50.846;4.388;2022-07-21T12:12:06;20.60;99.90
14519;DHT22;7346;50.846;4.388;2022-07-21T12:14:42;20.60;99.90
14519;DHT22;7346;50.846;4.388;2022-07-21T12:17:09;20.70;99.90
14519;DHT22;7346;50.846;4.388;2022-07-21T12:19:37;20.70;99.90
14519;DHT22;7346;50.846;4.388;2022-07-21T12:22:04;20.80;99.90
14519;DHT22;7346;50.846;4.388;2022-07-21T12:24:54;20.80;99.90
14519;DHT22;7346;50.846;4.388;2022-07-21T12:27:23;20.90;99.90
14519;DHT22;7346;50.846;4.388;2022-07-21T12:29:50;21.10;99.90
14519;DHT22;7346;50.846;4.388;2022-07-21T12:32:44;21.20;99.90
14519;DHT22;7346;50.846;4.388;2022-07-21T12:35:20;20.90;99.90
14519;DHT22;7346;50.846;4.388;2022-07-21T12:37:59;20.70;99.90
14519;DHT22;7346;50.846;4.388;2022-07-21T12:40:28;20.50;99.90
14519;DHT22;7346;50.846;4.388;2022-07-21T12:43:11;20.40;99.90
14519;DHT22;7346;50.846;4.388;2022-07-21T12:45:51;20.30;99.90
14519;DHT22;7346;50.846;4.388;2022-07-21T12:48:19;20.20;99.90
14519;DHT22;7346;50.846;4.388;2022-07-21T12:51:05;20.10;99.90
14519;DHT22;7346;50.846;4.388;2022-07-21T12:53:33;20.10;99.90
14519;DHT22;7346;50.846;4.388;2022-07-21T12:56:02;20.10;99.90
14519;DHT22;7346;50.846;4.388;2022-07-21T12:58:30;20.00;99.90
14519;DHT22;7346;50.846;4.388;2022-07-21T13:00:57;20.10;99.90
14519;DHT22;7346;50.846;4.388;2022-07-21T13:03:26;20.00;99.90
14519;DHT22;7346;50.846;4.388;2022-07-21T13:05:54;20.00;99.90
14519;DHT22;7346;50.846;4.388;2022-07-21T13:08:21;20.00;99.90
14519;DHT22;7346;50.846;4.388;2022-07-21T13:10:48;20.00;99.90
14519;DHT22;7346;50.846;4.388;2022-07-21T13:13:15;20.00;99.90
14519;DHT22;7346;50.846;4.388;2022-07-21T13:15:43;20.00;99.90
14519;DHT22;7346;50.846;4.388;2022-07-21T13:18:10;20.20;99.90
14519;DHT22;7346;50.846;4.388;2022-07-21T13:20:37;20.30;99.90
14519;DHT22;7346;50.846;4.388;2022-07-21T13:23:05;20.50;99.90
14519;DHT22;7346;50.846;4.388;2022-07-21T13:25:32;20.70;99.90
14519;DHT22;7346;50.846;4.388;2022-07-21T13:28:00;20.90;99.90
14519;DHT22;7346;50.846;4.388;2022-07-21T13:30:30;20.80;99.90
14519;DHT22;7346;50.846;4.388;2022-07-21T13:32:58;20.90;99.90
14519;DHT22;7346;50.846;4.388;2022-07-21T13:35:25;20.90;99.90
14519;DHT22;7346;50.846;4.388;2022-07-21T13:37:52;20.90;99.90
14519;DHT22;7346;50.846;4.388;2022-07-21T13:40:20;20.90;99.90
14519;DHT22;7346;50.846;4.388;2022-07-21T13:42:47;20.80;99.90
14519;DHT22;7346;50.846;4.388;2022-07-21T13:45:14;20.70;99.90
14519;DHT22;7346;50.846;4.388;2022-07-21T13:47:41;20.70;99.90
14519;DHT22;7346;50.846;4.388;2022-07-21T13:50:10;20.80;99.90
14519;DHT22;7346;50.846;4.388;2022-07-21T13:52:37;20.90;99.90
14519;DHT22;7346;50.846;4.388;2022-07-21T13:55:07;20.80;99.90
14519;DHT22;7346;50.846;4.388;2022-07-21T13:57:34;20.80;99.90
14519;DHT22;7346;50.846;4.388;2022-07-21T14:00:02;20.80;99.90
14519;DHT22;7346;50.846;4.388;2022-07-21T14:02:29;20.90;99.90
14519;DHT22;7346;50.846;4.388;2022-07-21T14:04:56;20.80;99.90
14519;DHT22;7346;50.846;4.388;2022-07-21T14:07:24;21.00;99.90
14519;DHT22;7346;50.846;4.388;2022-07-21T14:09:51;21.00;99.90
14519;DHT22;7346;50.846;4.388;2022-07-21T14:12:18;21.30;99.90
14519;DHT22;7346;50.846;4.388;2022-07-21T14:14:46;21.80;99.90
14519;DHT22;7346;50.846;4.388;2022-07-21T14:17:14;22.30;99.90
14519;DHT22;7346;50.846;4.388;2022-07-21T14:19:42;22.60;99.90
14519;DHT22;7346;50.846;4.388;2022-07-21T14:22:11;22.60;99.90
14519;DHT22;7346;50.846;4.388;2022-07-21T14:24:40;22.40;99.90
14519;DHT22;7346;50.846;4.388;2022-07-21T14:27:25;22.30;99.90
14519;DHT22;7346;50.846;4.388;2022-07-21T14:29:54;22.20;99.90
14519;DHT22;7346;50.846;4.388;2022-07-21T14:32:24;22.10;99.90
14519;DHT22;7346;50.846;4.388;2022-07-21T14:34:51;21.80;99.90
14519;DHT22;7346;50.846;4.388;2022-07-21T14:37:19;21.80;99.90
14519;DHT22;7346;50.846;4.388;2022-07-21T14:39:47;21.80;99.90
14519;DHT22;7346;50.846;4.388;2022-07-21T14:42:15;21.70;99.90
14519;DHT22;7346;50.846;4.388;2022-07-21T14:44:43;21.70;99.90
14519;DHT22;7346;50.846;4.388;2022-07-21T14:47:11;21.60;99.90
14519;DHT22;7346;50.846;4.388;2022-07-21T14:49:38;21.60;99.90
14519;DHT22;7346;50.846;4.388;2022-07-21T14:52:05;21.60;99.90
14519;DHT22;7346;50.846;4.388;2022-07-21T14:54:33;21.40;99.90
14519;DHT22;7346;50.846;4.388;2022-07-21T14:57:01;21.20;99.90
14519;DHT22;7346;50.846;4.388;2022-07-21T14:59:28;21.10;99.90
14519;DHT22;7346;50.846;4.388;2022-07-21T15:01:55;21.20;99.90
14519;DHT22;7346;50.846;4.388;2022-07-21T15:04:22;21.60;99.90
14519;DHT22;7346;50.846;4.388;2022-07-21T15:06:49;22.00;99.90
14519;DHT22;7346;50.846;4.388;2022-07-21T15:09:17;22.30;99.90
14519;DHT22;7346;50.846;4.388;2022-07-21T15:11:44;22.60;99.90
14519;DHT22;7346;50.846;4.388;2022-07-21T15:14:12;22.90;88.10
14519;DHT22;7346;50.846;4.388;2022-07-21T15:16:39;22.70;73.70
14519;DHT22;7346;50.846;4.388;2022-07-21T15:19:06;22.60;89.10
14519;DHT22;7346;50.846;4.388;2022-07-21T15:21:33;22.50;96.60
14519;DHT22;7346;50.846;4.388;2022-07-21T15:24:00;22.30;99.60
14519;DHT22;7346;50.846;4.388;2022-07-21T15:26:27;22.20;99.90
14519;DHT22;7346;50.846;4.388;2022-07-21T15:28:54;22.10;99.90
14519;DHT22;7346;50.846;4.388;2022-07-21T15:31:22;22.10;99.90
14519;DHT22;7346;50.846;4.388;2022-07-21T15:33:49;22.10;99.90
14519;DHT22;7346;50.846;4.388;2022-07-21T15:36:18;21.90;99.90
14519;DHT22;7346;50.846;4.388;2022-07-21T15:38:44;21.60;99.90
14519;DHT22;7346;50.846;4.388;2022-07-21T15:41:11;21.50;99.90
14519;DHT22;7346;50.846;4.388;2022-07-21T15:43:38;21.40;99.90
14519;DHT22;7346;50.846;4.388;2022-07-21T15:46:10;21.60;99.90
14519;DHT22;7346;50.846;4.388;2022-07-21T15:48:41;21.90;99.90
14519;DHT22;7346;50.846;4.388;2022-07-21T15:51:08;22.00;99.90
14519;DHT22;7346;50.846;4.388;2022-07-21T15:53:35;22.20;99.90
14519;DHT22;7346;50.846;4.388;2022-07-21T15:56:03;22.50;99.90
14519;DHT22;7346;50.846;4.388;2022-07-21T15:58:30;22.40;97.00
14519;DHT22;7346;50.846;4.388;2022-07-21T16:00:57;22.40;99.90